Time;durP1;ratioP1;P1;durP2;ratioP2;P2;SDS_P1;SDS_P2;PMS_P1;PMS_P2;Temp;Humidity;BMP_temperature;BMP_pressure;BME280_temperature;BME280_humidity;BME280_pressure;Samples;Min_cycle;Max_cycle;Signal;HPM_P1;HPM_P2
2023/09/09 01:36:26;;;;;;;;;;;24.80;54.50;;;;;;2214955;19;50746;-23
2023/09/09 01:37:26;;;;;;;;;;;24.70;54.50;;;;;;3047188;19;4796;-31
2023/09/09 01:38:27;;;;;;;;;;;24.70;54.40;;;;;;3052518;19;4649;-32
2023/09/09 01:39:28;;;;;;;;;;;24.70;54.40;;;;;;3051584;19;4484;-33
2023/09/09 01:40:28;;;;;;;;;;;24.70;54.40;;;;;;3050182;19;4637;-31
2023/09/09 01:41:29;;;;;;;;;;;24.70;54.30;;;;;;3052170;19;4652;-29
2023/09/09 01:42:29;;;;;;;;;;;24.70;54.50;;;;;;3052814;19;4705;-30
2023/09/09 01:43:30;;;;;;;;;;;24.70;54.30;;;;;;3051558;19;4651;-29
2023/09/09 01:44:31;;;;;;;;;;;24.70;54.40;;;;;;3051467;19;4701;-29
2023/09/09 01:45:31;;;;;;;;;;;24.70;54.40;;;;;;3051845;19;4646;-31
2023/09/09 01:46:32;;;;;;;;;;;24.70;54.30;;;;;;3052996;19;4746;-31
2023/09/09 01:47:33;;;;;;;;;;;24.70;54.30;;;;;;3049752;19;4530;-32
2023/09/09 01:48:34;;;;;;;;;;;24.70;55.00;;;;;;3051634;19;4605;-29
2023/09/09 01:49:34;;;;;;;;;;;24.70;54.30;;;;;;3051033;19;4656;-28
2023/09/09 01:50:35;;;;;;;;;;;24.70;54.30;;;;;;3049796;19;4688;-30
2023/09/09 01:51:36;;;;;;;;;;;24.70;54.30;;;;;;3052217;19;4624;-30
2023/09/09 01:52:37;;;;;;;;;;;24.70;54.30;;;;;;3050958;19;4640;-29
2023/09/09 01:53:38;;;;;;;;;;;24.70;54.20;;;;;;3051837;19;4633;-30
2023/09/09 01:54:39;;;;;;;;;;;24.70;54.60;;;;;;3052512;19;4646;-32
2023/09/09 01:55:40;;;;;;;;;;;24.70;54.20;;;;;;3052663;19;4470;-29
2023/09/09 01:56:41;;;;;;;;;;;24.70;54.30;;;;;;3052327;19;4657;-29
2023/09/09 01:57:42;;;;;;;;;;;24.70;54.20;;;;;;3051839;19;4900;-33
2023/09/09 01:58:46;;;;;;;;;;;24.70;54.20;;;;;;3052318;19;4636;-32
2023/09/09 01:59:48;;;;;;;;;;;24.70;54.20;;;;;;3050733;19;4633;-31
2023/09/09 02:00:49;;;;;;;;;;;24.70;54.20;;;;;;3051764;19;4825;-33
2023/09/09 02:01:51;;;;;;;;;;;24.70;54.80;;;;;;3052437;19;4781;-30
2023/09/09 02:02:52;;;;;;;;;;;24.70;54.10;;;;;;3053421;19;4587;-31
2023/09/09 02:03:53;;;;;;;;;;;24.70;54.20;;;;;;3052925;19;4716;-30
2023/09/09 02:04:53;;;;;;;;;;;24.70;54.10;;;;;;3052392;19;4633;-32
2023/09/09 02:05:54;;;;;;;;;;;24.70;54.10;;;;;;3052925;19;4575;-32
2023/09/09 02:06:54;;;;;;;;;;;24.70;54.20;;;;;;3051659;19;4602;-30
2023/09/09 02:07:55;;;;;;;;;;;24.70;54.20;;;;;;3050614;19;4606;-30
2023/09/09 02:08:56;;;;;;;;;;;24.70;54.20;;;;;;3051963;19;4948;-30
2023/09/09 02:09:57;;;;;;;;;;;24.70;54.10;;;;;;3051498;19;4758;-33
2023/09/09 02:10:58;;;;;;;;;;;24.70;54.10;;;;;;3052324;19;4598;-31
2023/09/09 02:11:58;;;;;;;;;;;24.70;54.20;;;;;;3052069;19;4626;-30
2023/09/09 02:12:59;;;;;;;;;;;24.70;54.10;;;;;;3052097;19;4606;-30
2023/09/09 02:14:00;;;;;;;;;;;24.70;54.20;;;;;;3052141;19;4578;-30
2023/09/09 02:15:00;;;;;;;;;;;24.70;54.10;;;;;;3052462;19;4571;-31
2023/09/09 02:16:05;;;;;;;;;;;24.70;54.20;;;;;;3051218;19;4577;-29
2023/09/09 02:17:05;;;;;;;;;;;24.70;54.10;;;;;;3051475;19;4563;-29
2023/09/09 02:18:06;;;;;;;;;;;24.70;54.20;;;;;;3052247;19;4521;-30
2023/09/09 02:19:06;;;;;;;;;;;24.70;54.20;;;;;;3052412;19;4476;-29
2023/09/09 02:20:07;;;;;;;;;;;24.70;54.20;;;;;;3053237;19;925;-32
2023/09/09 02:21:08;;;;;;;;;;;24.70;54.20;;;;;;3052262;19;4838;-29
2023/09/09 02:22:09;;;;;;;;;;;24.60;54.10;;;;;;3051113;19;4920;-31
2023/09/09 02:23:10;;;;;;;;;;;24.60;54.10;;;;;;3052969;19;4641;-29
2023/09/09 02:24:10;;;;;;;;;;;24.60;54.10;;;;;;3049216;19;4707;-29
2023/09/09 02:25:11;;;;;;;;;;;24.60;54.00;;;;;;3052956;19;4610;-30
2023/09/09 02:26:12;;;;;;;;;;;24.60;54.00;;;;;;3052861;19;4580;-29
2023/09/09 02:27:12;;;;;;;;;;;24.60;54.00;;;;;;3050876;19;4444;-29
2023/09/09 02:28:13;;;;;;;;;;;24.60;54.00;;;;;;3052569;19;984;-29
2023/09/09 02:29:14;;;;;;;;;;;24.60;54.00;;;;;;3052652;19;4610;-29
2023/09/09 02:30:14;;;;;;;;;;;24.60;53.90;;;;;;3051796;19;4528;-29
2023/09/09 02:31:15;;;;;;;;;;;24.60;54.00;;;;;;3051615;19;4613;-28
2023/09/09 02:32:16;;;;;;;;;;;24.60;54.00;;;;;;3052355;19;4653;-31
2023/09/09 02:33:16;;;;;;;;;;;24.60;54.00;;;;;;3051890;19;4605;-28
2023/09/09 02:34:17;;;;;;;;;;;24.60;54.00;;;;;;3051909;19;4840;-29
2023/09/09 02:35:18;;;;;;;;;;;24.60;54.00;;;;;;3052863;19;4631;-33
2023/09/09 02:36:18;;;;;;;;;;;24.60;54.00;;;;;;3051532;19;4707;-30
2023/09/09 02:37:20;;;;;;;;;;;24.60;53.90;;;;;;3052740;19;4737;-28
2023/09/09 02:38:20;;;;;;;;;;;24.60;54.00;;;;;;3051063;19;4691;-32
2023/09/09 02:39:21;;;;;;;;;;;24.60;53.90;;;;;;3051412;19;4623;-29
2023/09/09 02:40:22;;;;;;;;;;;24.60;54.00;;;;;;3050133;19;4777;-29
2023/09/09 02:41:23;;;;;;;;;;;24.60;54.00;;;;;;3052014;19;4642;-30
2023/09/09 02:42:23;;;;;;;;;;;24.60;53.90;;;;;;3051610;19;4785;-29
2023/09/09 02:43:24;;;;;;;;;;;24.60;54.00;;;;;;3052890;19;4488;-33
2023/09/09 02:44:25;;;;;;;;;;;24.60;54.00;;;;;;3050588;19;4625;-31
2023/09/09 02:45:25;;;;;;;;;;;24.60;54.00;;;;;;3051822;19;4618;-30
2023/09/09 02:46:26;;;;;;;;;;;24.60;54.00;;;;;;3051865;19;4574;-32
2023/09/09 02:47:27;;;;;;;;;;;24.60;53.90;;;;;;3050610;19;4718;-29
2023/09/09 02:48:27;;;;;;;;;;;24.60;53.90;;;;;;3050584;19;4590;-33
2023/09/09 02:49:28;;;;;;;;;;;24.60;53.90;;;;;;3052375;19;4616;-32
2023/09/09 02:50:28;;;;;;;;;;;24.60;53.90;;;;;;3051893;19;4618;-34
2023/09/09 02:51:29;;;;;;;;;;;24.60;53.90;;;;;;3052557;19;4454;-30
2023/09/09 02:52:30;;;;;;;;;;;24.60;53.90;;;;;;3051764;19;4620;-31
2023/09/09 02:53:30;;;;;;;;;;;24.60;53.80;;;;;;3052959;19;4634;-28
2023/09/09 02:54:31;;;;;;;;;;;24.60;53.80;;;;;;3052150;19;4801;-28
2023/09/09 02:55:32;;;;;;;;;;;24.60;53.80;;;;;;3050817;19;4644;-31
2023/09/09 02:56:32;;;;;;;;;;;24.50;53.70;;;;;;3051912;19;4720;-28
2023/09/09 02:57:33;;;;;;;;;;;24.50;53.90;;;;;;3050944;19;4723;-30
2023/09/09 02:58:34;;;;;;;;;;;24.60;53.80;;;;;;3050598;19;4733;-30
2023/09/09 02:59:36;;;;;;;;;;;24.50;53.80;;;;;;3051153;19;4490;-29
2023/09/09 03:00:36;;;;;;;;;;;24.50;53.60;;;;;;3049965;19;4655;-32
2023/09/09 03:01:37;;;;;;;;;;;24.60;53.80;;;;;;3051820;19;4616;-32
2023/09/09 03:02:38;;;;;;;;;;;24.50;53.70;;;;;;3050832;19;4618;-33
2023/09/09 03:03:38;;;;;;;;;;;24.50;53.60;;;;;;3052943;19;4590;-30
2023/09/09 03:04:39;;;;;;;;;;;24.50;53.60;;;;;;3051611;19;4630;-30
2023/09/09 03:05:39;;;;;;;;;;;24.50;53.60;;;;;;3052020;19;4671;-32
2023/09/09 03:06:40;;;;;;;;;;;24.50;53.60;;;;;;3050821;19;4705;-28
2023/09/09 03:07:43;;;;;;;;;;;24.50;53.60;;;;;;3051166;19;4783;-26
2023/09/09 03:08:44;;;;;;;;;;;24.50;53.60;;;;;;3049901;19;4633;-24
2023/09/09 03:09:45;;;;;;;;;;;24.50;53.70;;;;;;3048215;19;4659;-26
2023/09/09 03:10:46;;;;;;;;;;;24.50;53.70;;;;;;3050319;19;4689;-23
2023/09/09 03:11:46;;;;;;;;;;;24.50;53.60;;;;;;3049494;19;4657;-26
2023/09/09 03:12:47;;;;;;;;;;;24.50;53.60;;;;;;3050315;19;4719;-24
2023/09/09 03:13:48;;;;;;;;;;;24.50;53.60;;;;;;3053161;19;4592;-26
2023/09/09 03:14:48;;;;;;;;;;;24.50;53.60;;;;;;3051810;19;4617;-26
2023/09/09 03:15:49;;;;;;;;;;;24.50;53.60;;;;;;3052111;19;4644;-24
2023/09/09 03:16:49;;;;;;;;;;;24.50;53.60;;;;;;3052690;19;4600;-24
2023/09/09 03:17:50;;;;;;;;;;;24.50;53.60;;;;;;3052062;19;4744;-30
2023/09/09 03:18:51;;;;;;;;;;;24.50;53.60;;;;;;3052002;19;4714;-28
2023/09/09 03:19:51;;;;;;;;;;;24.50;53.60;;;;;;3051720;19;4636;-33
2023/09/09 03:20:52;;;;;;;;;;;24.50;53.60;;;;;;3048348;19;4636;-30
2023/09/09 03:21:53;;;;;;;;;;;24.50;53.60;;;;;;3052154;19;4749;-31
2023/09/09 03:22:53;;;;;;;;;;;24.50;53.60;;;;;;3051484;19;4752;-32
2023/09/09 03:23:54;;;;;;;;;;;24.50;53.60;;;;;;3052296;19;4584;-29
2023/09/09 03:24:55;;;;;;;;;;;24.50;53.70;;;;;;3050479;19;4623;-30
2023/09/09 03:25:55;;;;;;;;;;;24.50;53.60;;;;;;3050404;19;4575;-31
2023/09/09 03:26:56;;;;;;;;;;;24.50;53.60;;;;;;3052294;19;4740;-29
2023/09/09 03:27:56;;;;;;;;;;;24.50;53.60;;;;;;3049305;19;4576;-25
2023/09/09 03:28:57;;;;;;;;;;;24.50;53.60;;;;;;3054439;19;4570;-25
2023/09/09 03:29:57;;;;;;;;;;;24.40;53.60;;;;;;3054362;19;4630;-24
2023/09/09 03:30:58;;;;;;;;;;;24.50;53.60;;;;;;3055146;19;4574;-23
2023/09/09 03:31:59;;;;;;;;;;;24.40;53.60;;;;;;3054975;19;4606;-24
2023/09/09 03:32:59;;;;;;;;;;;24.50;53.60;;;;;;3055483;19;4586;-26
2023/09/09 03:34:00;;;;;;;;;;;24.40;53.60;;;;;;3055134;19;4749;-24
2023/09/09 03:35:00;;;;;;;;;;;24.40;53.50;;;;;;3053333;19;4764;-25
2023/09/09 03:36:01;;;;;;;;;;;24.50;53.70;;;;;;3054754;19;4630;-26
2023/09/09 03:37:02;;;;;;;;;;;24.40;53.60;;;;;;3053031;19;4857;-24
2023/09/09 03:38:02;;;;;;;;;;;24.40;53.60;;;;;;3055747;19;4631;-26
2023/09/09 03:39:03;;;;;;;;;;;24.50;53.60;;;;;;3054200;19;4619;-25
2023/09/09 03:40:05;;;;;;;;;;;24.40;53.60;;;;;;3055883;19;4571;-28
2023/09/09 03:41:06;;;;;;;;;;;24.40;53.60;;;;;;3055425;19;4550;-26
2023/09/09 03:42:07;;;;;;;;;;;24.40;53.60;;;;;;3053261;19;4508;-26
2023/09/09 03:43:07;;;;;;;;;;;24.40;54.20;;;;;;3053939;19;4651;-23
2023/09/09 03:44:08;;;;;;;;;;;24.40;53.50;;;;;;3054771;19;4688;-26
2023/09/09 03:45:10;;;;;;;;;;;24.50;52.90;;;;;;3054870;19;4655;-26
2023/09/09 03:46:10;;;;;;;;;;;24.50;52.70;;;;;;3055504;19;934;-25
2023/09/09 03:47:11;;;;;;;;;;;24.60;52.70;;;;;;3054421;19;4522;-26
2023/09/09 03:48:12;;;;;;;;;;;24.60;52.30;;;;;;3055302;19;4644;-25
2023/09/09 03:49:12;;;;;;;;;;;24.60;52.40;;;;;;3055228;19;4642;-26
2023/09/09 03:50:13;;;;;;;;;;;24.60;52.30;;;;;;3054910;19;4601;-25
2023/09/09 03:51:14;;;;;;;;;;;24.60;52.20;;;;;;3055430;19;4631;-24
2023/09/09 03:52:14;;;;;;;;;;;24.60;52.20;;;;;;3054300;19;4635;-24
2023/09/09 03:53:15;;;;;;;;;;;24.60;52.20;;;;;;3055000;19;4597;-25
2023/09/09 03:54:16;;;;;;;;;;;24.70;52.10;;;;;;3054588;19;4657;-25
2023/09/09 03:55:17;;;;;;;;;;;24.70;52.20;;;;;;3054734;19;4505;-27
2023/09/09 03:56:18;;;;;;;;;;;24.70;52.20;;;;;;3055126;19;4801;-23
2023/09/09 03:57:19;;;;;;;;;;;24.70;52.10;;;;;;3054130;19;4759;-24
2023/09/09 03:58:20;;;;;;;;;;;24.70;52.00;;;;;;3054621;19;4667;-24
2023/09/09 03:59:20;;;;;;;;;;;24.70;51.90;;;;;;3054702;19;4690;-23
2023/09/09 04:00:21;;;;;;;;;;;24.70;52.00;;;;;;3053431;19;4676;-26
2023/09/09 04:01:22;;;;;;;;;;;24.70;52.00;;;;;;3054735;19;4654;-24
2023/09/09 04:02:22;;;;;;;;;;;24.70;51.90;;;;;;3054214;19;4621;-27
2023/09/09 04:03:23;;;;;;;;;;;24.70;51.90;;;;;;3054252;19;4572;-25
2023/09/09 04:04:24;;;;;;;;;;;24.70;52.00;;;;;;3055150;19;4625;-23
2023/09/09 04:05:25;;;;;;;;;;;24.70;52.00;;;;;;3054351;19;4642;-24
2023/09/09 04:06:27;;;;;;;;;;;24.70;52.00;;;;;;3054765;19;4522;-24
2023/09/09 04:07:27;;;;;;;;;;;24.70;52.00;;;;;;3054589;19;4732;-24
2023/09/09 04:08:29;;;;;;;;;;;24.70;52.10;;;;;;3054061;19;4640;-24
2023/09/09 04:09:30;;;;;;;;;;;24.70;52.00;;;;;;3052438;19;4663;-24
2023/09/09 04:10:31;;;;;;;;;;;24.70;52.10;;;;;;3053538;19;4998;-26
2023/09/09 04:11:31;;;;;;;;;;;24.70;52.20;;;;;;3054587;19;4513;-26
2023/09/09 04:12:32;;;;;;;;;;;24.80;52.30;;;;;;3055648;19;4649;-25
2023/09/09 04:13:37;;;;;;;;;;;24.80;52.10;;;;;;3053522;19;4724;-26
2023/09/09 04:14:38;;;;;;;;;;;24.80;52.20;;;;;;3054945;19;4601;-25
2023/09/09 04:15:40;;;;;;;;;;;24.90;51.90;;;;;;3054966;19;4658;-26
2023/09/09 04:16:41;;;;;;;;;;;24.80;51.90;;;;;;3054285;19;4647;-25
2023/09/09 04:17:41;;;;;;;;;;;24.90;51.70;;;;;;3054660;19;5033;-23
2023/09/09 04:18:42;;;;;;;;;;;24.90;51.90;;;;;;3054513;19;4644;-26
2023/09/09 04:19:43;;;;;;;;;;;24.90;51.80;;;;;;3054627;19;4508;-25
2023/09/09 04:20:44;;;;;;;;;;;24.90;51.70;;;;;;3052994;19;4821;-27
2023/09/09 04:21:45;;;;;;;;;;;24.90;51.70;;;;;;3052842;19;4639;-25
2023/09/09 04:22:46;;;;;;;;;;;24.90;51.70;;;;;;3054005;19;4615;-25
2023/09/09 04:23:47;;;;;;;;;;;24.90;51.60;;;;;;3054094;19;4580;-24
2023/09/09 04:24:47;;;;;;;;;;;24.90;51.70;;;;;;3053462;19;4650;-24
2023/09/09 04:25:48;;;;;;;;;;;24.90;51.70;;;;;;3054190;19;4580;-27
2023/09/09 04:26:48;;;;;;;;;;;24.90;51.50;;;;;;3052899;19;4610;-25
2023/09/09 04:27:49;;;;;;;;;;;24.80;51.50;;;;;;3054968;19;4583;-25
2023/09/09 04:28:50;;;;;;;;;;;24.80;51.60;;;;;;3053952;19;4746;-26
2023/09/09 04:29:50;;;;;;;;;;;24.80;51.50;;;;;;3053986;19;4748;-28
2023/09/09 04:30:51;;;;;;;;;;;24.80;51.60;;;;;;3053370;19;4730;-27
2023/09/09 04:31:51;;;;;;;;;;;24.80;51.70;;;;;;3054939;19;4543;-28
2023/09/09 04:32:52;;;;;;;;;;;24.80;51.60;;;;;;3054314;19;4699;-25
2023/09/09 04:33:53;;;;;;;;;;;24.80;51.60;;;;;;3054566;19;4551;-25
2023/09/09 04:34:53;;;;;;;;;;;24.80;51.60;;;;;;3053893;19;4657;-26
2023/09/09 04:35:54;;;;;;;;;;;24.80;51.60;;;;;;3055210;19;4571;-26
2023/09/09 04:36:54;;;;;;;;;;;24.80;51.70;;;;;;3054143;19;4709;-27
2023/09/09 04:37:55;;;;;;;;;;;24.80;51.60;;;;;;3053851;19;4746;-28
2023/09/09 04:38:56;;;;;;;;;;;24.80;51.70;;;;;;3053329;19;4595;-25
2023/09/09 04:39:56;;;;;;;;;;;24.90;52.00;;;;;;3054483;19;4574;-28
2023/09/09 04:40:57;;;;;;;;;;;24.90;51.60;;;;;;3053290;19;4602;-25
2023/09/09 04:41:58;;;;;;;;;;;24.90;51.90;;;;;;3052899;19;4560;-26
2023/09/09 04:42:58;;;;;;;;;;;24.90;51.10;;;;;;3053831;19;4665;-26
2023/09/09 04:43:59;;;;;;;;;;;25.00;51.40;;;;;;3054473;19;4569;-26
2023/09/09 04:44:59;;;;;;;;;;;25.00;51.50;;;;;;3054535;19;4556;-25
2023/09/09 04:46:00;;;;;;;;;;;25.00;51.40;;;;;;3053897;19;4582;-24
2023/09/09 04:47:02;;;;;;;;;;;25.10;51.40;;;;;;3055081;19;4606;-26
2023/09/09 04:48:03;;;;;;;;;;;25.00;51.30;;;;;;3054890;19;4634;-26
2023/09/09 04:49:03;;;;;;;;;;;25.00;51.10;;;;;;3054259;19;4444;-24
2023/09/09 04:50:04;;;;;;;;;;;25.00;51.40;;;;;;3053964;19;4671;-25
2023/09/09 04:51:05;;;;;;;;;;;25.00;51.30;;;;;;3054037;19;4698;-24
2023/09/09 04:52:05;;;;;;;;;;;25.00;51.30;;;;;;3054063;19;20740;-27
2023/09/09 04:53:07;;;;;;;;;;;25.00;51.20;;;;;;3053418;19;21718;-24
2023/09/09 04:54:07;;;;;;;;;;;25.00;51.30;;;;;;3052810;19;4539;-24
2023/09/09 04:55:08;;;;;;;;;;;25.00;51.40;;;;;;3054466;19;4626;-24
2023/09/09 04:56:09;;;;;;;;;;;25.00;51.40;;;;;;3053813;19;3977;-25
2023/09/09 04:57:09;;;;;;;;;;;24.90;51.40;;;;;;3053995;19;4681;-24
2023/09/09 04:58:10;;;;;;;;;;;24.90;51.40;;;;;;3053287;19;4608;-24
2023/09/09 04:59:11;;;;;;;;;;;24.90;51.40;;;;;;3052948;19;4518;-25
2023/09/09 05:00:12;;;;;;;;;;;24.90;51.40;;;;;;3052108;19;4625;-25
2023/09/09 05:01:12;;;;;;;;;;;24.90;51.40;;;;;;3054301;19;4653;-25
2023/09/09 05:02:13;;;;;;;;;;;24.90;51.30;;;;;;3053045;19;4578;-24
2023/09/09 05:03:14;;;;;;;;;;;24.90;51.30;;;;;;3052967;19;4783;-24
2023/09/09 05:04:14;;;;;;;;;;;24.90;51.40;;;;;;3053621;19;4463;-26
2023/09/09 05:05:15;;;;;;;;;;;24.90;51.50;;;;;;3053085;19;4857;-25
2023/09/09 05:06:15;;;;;;;;;;;24.90;51.50;;;;;;3051655;19;4626;-24
2023/09/09 05:07:17;;;;;;;;;;;24.90;51.30;;;;;;3054353;19;4500;-26
2023/09/09 05:08:17;;;;;;;;;;;24.90;51.40;;;;;;3053552;19;4653;-29
2023/09/09 05:09:18;;;;;;;;;;;24.90;51.30;;;;;;3053394;19;4758;-26
2023/09/09 05:10:19;;;;;;;;;;;24.90;51.40;;;;;;3052845;19;4554;-27
2023/09/09 05:11:20;;;;;;;;;;;24.90;51.60;;;;;;3050541;19;4791;-24
2023/09/09 05:12:21;;;;;;;;;;;24.90;51.80;;;;;;3049495;19;4499;-27
2023/09/09 05:13:21;;;;;;;;;;;25.00;51.30;;;;;;3052316;19;5257;-25
2023/09/09 05:14:22;;;;;;;;;;;25.00;51.20;;;;;;3052758;19;4619;-26
2023/09/09 05:15:22;;;;;;;;;;;25.10;51.20;;;;;;3051973;19;4635;-25
2023/09/09 05:16:23;;;;;;;;;;;25.10;51.10;;;;;;3051242;19;4721;-25
2023/09/09 05:17:24;;;;;;;;;;;25.10;51.20;;;;;;3053421;19;4732;-27
2023/09/09 05:18:25;;;;;;;;;;;25.10;50.80;;;;;;3053591;19;4497;-26
2023/09/09 05:19:25;;;;;;;;;;;25.10;51.10;;;;;;3054466;19;4685;-26
2023/09/09 05:20:27;;;;;;;;;;;25.10;51.00;;;;;;3052873;19;4485;-28
2023/09/09 05:21:27;;;;;;;;;;;25.10;51.20;;;;;;3054471;19;4603;-26
2023/09/09 05:22:28;;;;;;;;;;;25.10;51.00;;;;;;3052229;19;4615;-25
2023/09/09 05:23:28;;;;;;;;;;;25.10;51.00;;;;;;3054696;19;4525;-27
2023/09/09 05:24:29;;;;;;;;;;;25.10;51.00;;;;;;3055085;19;4601;-26
2023/09/09 05:25:30;;;;;;;;;;;25.10;51.10;;;;;;3054212;19;4800;-27
2023/09/09 05:26:31;;;;;;;;;;;25.10;51.20;;;;;;3055125;19;4610;-26
2023/09/09 05:27:31;;;;;;;;;;;25.00;51.10;;;;;;3053701;19;4797;-27
2023/09/09 05:28:32;;;;;;;;;;;25.00;51.00;;;;;;3053420;19;4643;-26
2023/09/09 05:29:32;;;;;;;;;;;25.00;50.90;;;;;;3054947;19;4784;-29
2023/09/09 05:30:33;;;;;;;;;;;25.00;50.90;;;;;;3054779;19;4627;-25
2023/09/09 05:31:34;;;;;;;;;;;25.00;51.00;;;;;;3054333;19;4548;-26
2023/09/09 05:32:35;;;;;;;;;;;25.00;51.10;;;;;;3054203;19;4644;-25
2023/09/09 05:33:35;;;;;;;;;;;25.00;51.20;;;;;;3054526;19;4624;-26
2023/09/09 05:34:36;;;;;;;;;;;25.00;51.10;;;;;;3054477;19;4646;-26
2023/09/09 05:35:37;;;;;;;;;;;25.00;51.10;;;;;;3054245;19;4718;-27
2023/09/09 05:36:37;;;;;;;;;;;25.00;51.10;;;;;;3052667;19;4639;-24
2023/09/09 05:37:42;;;;;;;;;;;25.00;51.10;;;;;;3053620;19;4774;-25
2023/09/09 05:38:42;;;;;;;;;;;24.90;51.10;;;;;;3053204;19;4635;-24
2023/09/09 05:39:43;;;;;;;;;;;25.00;51.00;;;;;;3053479;19;4682;-25
2023/09/09 05:40:44;;;;;;;;;;;24.90;51.00;;;;;;3053481;19;4662;-25
2023/09/09 05:41:44;;;;;;;;;;;24.90;51.00;;;;;;3050524;19;4855;-25
2023/09/09 05:42:45;;;;;;;;;;;24.90;51.10;;;;;;3050850;19;4651;-26
2023/09/09 05:43:46;;;;;;;;;;;24.90;51.10;;;;;;3051797;19;4745;-26
2023/09/09 05:44:47;;;;;;;;;;;24.90;51.20;;;;;;3052160;19;4644;-27
2023/09/09 05:45:48;;;;;;;;;;;24.90;51.60;;;;;;3052026;19;4633;-24
2023/09/09 05:46:48;;;;;;;;;;;25.00;51.20;;;;;;3052127;19;4689;-25
2023/09/09 05:47:49;;;;;;;;;;;25.00;51.00;;;;;;3052759;19;4755;-26
2023/09/09 05:48:49;;;;;;;;;;;25.10;51.10;;;;;;3052470;19;4659;-25
2023/09/09 05:49:50;;;;;;;;;;;25.10;51.10;;;;;;3052624;19;4634;-24
2023/09/09 05:50:51;;;;;;;;;;;25.10;51.10;;;;;;3052041;19;4620;-24
2023/09/09 05:51:51;;;;;;;;;;;25.10;51.00;;;;;;3052023;19;4839;-25
2023/09/09 05:52:52;;;;;;;;;;;25.10;51.10;;;;;;3051429;19;4736;-24
2023/09/09 05:53:53;;;;;;;;;;;25.10;50.90;;;;;;3052536;19;4574;-25
2023/09/09 05:54:53;;;;;;;;;;;25.10;51.10;;;;;;3051672;19;4653;-26
2023/09/09 05:55:54;;;;;;;;;;;25.10;51.20;;;;;;3049222;19;4610;-25
2023/09/09 05:56:54;;;;;;;;;;;25.10;51.10;;;;;;3051033;19;4614;-25
2023/09/09 05:57:55;;;;;;;;;;;25.00;51.20;;;;;;3047771;19;4864;-26
2023/09/09 05:58:56;;;;;;;;;;;25.10;51.20;;;;;;3050949;19;4759;-25
2023/09/09 05:59:56;;;;;;;;;;;25.10;51.10;;;;;;3049434;19;4590;-32
2023/09/09 06:00:57;;;;;;;;;;;25.10;51.10;;;;;;3049171;19;4497;-34
2023/09/09 06:01:58;;;;;;;;;;;25.10;51.30;;;;;;3054043;19;4564;-33
2023/09/09 06:02:58;;;;;;;;;;;25.00;51.20;;;;;;3051994;19;4553;-30
2023/09/09 06:03:59;;;;;;;;;;;25.00;51.20;;;;;;3050617;19;4552;-30
2023/09/09 06:05:00;;;;;;;;;;;25.00;51.10;;;;;;3051884;19;4597;-30
2023/09/09 06:06:00;;;;;;;;;;;25.00;51.20;;;;;;3049203;19;4552;-29
2023/09/09 06:07:01;;;;;;;;;;;25.00;51.10;;;;;;3049441;19;4564;-29
2023/09/09 06:08:01;;;;;;;;;;;25.00;51.10;;;;;;3048885;19;4592;-31
2023/09/09 06:09:02;;;;;;;;;;;25.00;51.00;;;;;;3050535;19;4743;-34
2023/09/09 06:10:03;;;;;;;;;;;25.00;51.30;;;;;;3048871;19;4595;-33
2023/09/09 06:11:04;;;;;;;;;;;25.00;51.20;;;;;;3047956;19;4784;-31
2023/09/09 06:12:04;;;;;;;;;;;25.00;51.40;;;;;;3043975;19;4662;-33
2023/09/09 06:13:05;;;;;;;;;;;25.00;51.20;;;;;;3048690;19;4641;-29
2023/09/09 06:14:06;;;;;;;;;;;25.00;51.10;;;;;;3052613;19;4735;-34
2023/09/09 06:15:07;;;;;;;;;;;24.90;51.00;;;;;;3051215;19;4694;-33
2023/09/09 06:16:08;;;;;;;;;;;25.00;51.20;;;;;;3052834;19;3927;-34
2023/09/09 06:17:08;;;;;;;;;;;25.00;51.10;;;;;;3048973;19;4626;-33
2023/09/09 06:18:09;;;;;;;;;;;25.00;51.30;;;;;;3049820;19;4653;-30
2023/09/09 06:19:09;;;;;;;;;;;25.00;51.30;;;;;;3052570;19;4574;-30
2023/09/09 06:20:11;;;;;;;;;;;25.00;51.30;;;;;;3052455;19;4638;-33
2023/09/09 06:21:11;;;;;;;;;;;24.90;51.50;;;;;;3052200;19;4663;-31
2023/09/09 06:22:12;;;;;;;;;;;24.90;51.30;;;;;;3051785;19;4085;-30
2023/09/09 06:23:13;;;;;;;;;;;24.90;51.40;;;;;;3051388;19;4637;-31
2023/09/09 06:24:13;;;;;;;;;;;24.90;51.40;;;;;;3051229;19;4691;-31
2023/09/09 06:25:14;;;;;;;;;;;24.90;51.30;;;;;;3049514;19;4639;-31
2023/09/09 06:26:15;;;;;;;;;;;24.90;51.20;;;;;;3052920;19;4682;-34
2023/09/09 06:27:15;;;;;;;;;;;24.90;51.50;;;;;;3051884;19;4509;-34
2023/09/09 06:28:16;;;;;;;;;;;24.90;51.40;;;;;;3049691;19;4638;-31
2023/09/09 06:29:16;;;;;;;;;;;25.00;51.50;;;;;;3048272;19;4813;-30
2023/09/09 06:30:17;;;;;;;;;;;24.90;51.70;;;;;;3048154;19;4554;-31
2023/09/09 06:31:18;;;;;;;;;;;24.90;51.40;;;;;;3050660;19;4647;-35
2023/09/09 06:32:18;;;;;;;;;;;24.90;51.50;;;;;;3048529;19;4647;-31
2023/09/09 06:33:20;;;;;;;;;;;25.00;51.90;;;;;;3047433;19;4728;-30
2023/09/09 06:34:21;;;;;;;;;;;25.10;51.80;;;;;;3047521;19;4782;-32
2023/09/09 06:35:22;;;;;;;;;;;25.10;51.70;;;;;;3050066;19;4507;-33
2023/09/09 06:36:22;;;;;;;;;;;25.20;51.50;;;;;;3051628;19;4852;-30
2023/09/09 06:37:23;;;;;;;;;;;25.20;51.40;;;;;;3050624;19;4718;-32
2023/09/09 06:38:24;;;;;;;;;;;25.20;51.30;;;;;;3048230;19;4532;-32
2023/09/09 06:39:25;;;;;;;;;;;25.20;51.50;;;;;;3050766;19;4617;-31
2023/09/09 06:40:25;;;;;;;;;;;25.20;51.40;;;;;;3047154;19;4644;-25
2023/09/09 06:41:26;;;;;;;;;;;25.30;51.50;;;;;;3048517;19;4620;-26
2023/09/09 06:42:27;;;;;;;;;;;25.30;51.40;;;;;;3050229;19;4667;-25
2023/09/09 06:43:27;;;;;;;;;;;25.30;51.60;;;;;;3047152;19;4468;-26
2023/09/09 06:44:28;;;;;;;;;;;25.30;51.50;;;;;;3050002;19;4748;-27
2023/09/09 06:45:29;;;;;;;;;;;25.30;51.60;;;;;;3050944;19;4649;-25
2023/09/09 06:46:30;;;;;;;;;;;25.20;51.40;;;;;;3050780;19;5028;-26
2023/09/09 06:47:30;;;;;;;;;;;25.20;51.60;;;;;;3050754;19;4793;-28
2023/09/09 06:48:31;;;;;;;;;;;25.20;51.70;;;;;;3050204;19;4628;-26
2023/09/09 06:49:34;;;;;;;;;;;25.20;51.70;;;;;;3049422;19;4619;-26
2023/09/09 06:50:35;;;;;;;;;;;25.20;51.50;;;;;;3049876;19;4687;-28
2023/09/09 06:51:36;;;;;;;;;;;25.20;51.80;;;;;;3050312;19;4479;-25
2023/09/09 06:52:38;;;;;;;;;;;25.20;51.60;;;;;;3051591;19;4632;-25
2023/09/09 06:53:39;;;;;;;;;;;25.20;51.50;;;;;;3049612;19;4657;-26
2023/09/09 06:54:39;;;;;;;;;;;25.20;51.90;;;;;;3049336;19;4658;-26
2023/09/09 06:55:41;;;;;;;;;;;25.20;52.00;;;;;;3051548;19;4701;-27
2023/09/09 06:56:41;;;;;;;;;;;25.20;51.70;;;;;;3050297;19;4612;-25
2023/09/09 06:57:42;;;;;;;;;;;25.20;51.90;;;;;;3050540;19;4728;-25
2023/09/09 06:58:43;;;;;;;;;;;25.20;52.10;;;;;;3049278;19;4695;-26
2023/09/09 06:59:44;;;;;;;;;;;25.20;52.10;;;;;;3049141;19;4492;-26
2023/09/09 07:00:51;;;;;;;;;;;25.20;52.10;;;;;;3049350;19;4632;-29
2023/09/09 07:01:52;;;;;;;;;;;25.20;52.20;;;;;;3050352;19;4714;-28
2023/09/09 07:02:53;;;;;;;;;;;25.20;52.00;;;;;;3046848;19;4628;-25
2023/09/09 07:03:53;;;;;;;;;;;25.20;52.00;;;;;;3051117;19;4572;-25
2023/09/09 07:04:54;;;;;;;;;;;25.20;52.00;;;;;;3051605;19;4757;-27
2023/09/09 07:05:57;;;;;;;;;;;25.20;52.10;;;;;;3051333;19;4605;-26
2023/09/09 07:06:58;;;;;;;;;;;25.10;52.10;;;;;;3053299;19;4657;-25
2023/09/09 07:07:59;;;;;;;;;;;25.20;52.40;;;;;;3053643;19;4673;-25
2023/09/09 07:08:59;;;;;;;;;;;25.20;52.20;;;;;;3056069;19;4582;-25
2023/09/09 07:10:00;;;;;;;;;;;25.20;52.30;;;;;;3054160;19;4585;-25
2023/09/09 07:11:01;;;;;;;;;;;25.10;52.10;;;;;;3054707;19;4646;-26
2023/09/09 07:12:02;;;;;;;;;;;25.20;52.50;;;;;;3052725;19;4518;-26
2023/09/09 07:13:03;;;;;;;;;;;25.10;52.30;;;;;;3050698;19;4555;-28
2023/09/09 07:14:03;;;;;;;;;;;25.10;52.20;;;;;;3054938;19;4789;-27
2023/09/09 07:15:05;;;;;;;;;;;25.10;52.90;;;;;;3051665;19;5058;-28
2023/09/09 07:16:05;;;;;;;;;;;25.10;52.50;;;;;;3054540;19;4516;-26
2023/09/09 07:17:06;;;;;;;;;;;25.10;52.50;;;;;;3053867;19;21968;-26
2023/09/09 07:18:06;;;;;;;;;;;25.10;52.40;;;;;;3053300;19;4506;-25
2023/09/09 07:19:07;;;;;;;;;;;25.10;52.40;;;;;;3054182;19;1009;-26
2023/09/09 07:20:08;;;;;;;;;;;25.10;52.50;;;;;;3052928;19;4590;-25
2023/09/09 07:21:08;;;;;;;;;;;25.10;52.60;;;;;;3052960;19;4640;-28
2023/09/09 07:22:09;;;;;;;;;;;25.10;52.50;;;;;;3054457;19;4662;-25
2023/09/09 07:23:10;;;;;;;;;;;25.10;52.50;;;;;;3053819;19;5090;-25
2023/09/09 07:24:10;;;;;;;;;;;25.10;52.70;;;;;;3051065;19;4763;-27
2023/09/09 07:25:11;;;;;;;;;;;25.10;52.60;;;;;;3050764;19;4800;-26
2023/09/09 07:26:12;;;;;;;;;;;25.10;52.70;;;;;;3050879;19;4579;-27
2023/09/09 07:27:12;;;;;;;;;;;25.10;52.70;;;;;;3053814;19;870;-25
2023/09/09 07:28:13;;;;;;;;;;;25.10;52.80;;;;;;3054338;19;4590;-27
2023/09/09 07:29:14;;;;;;;;;;;25.10;52.90;;;;;;3052128;19;4723;-25
2023/09/09 07:30:14;;;;;;;;;;;25.10;53.00;;;;;;3052709;19;4965;-25
2023/09/09 07:31:15;;;;;;;;;;;25.10;52.70;;;;;;3052681;19;4524;-26
2023/09/09 07:32:15;;;;;;;;;;;25.10;52.70;;;;;;3053170;19;4645;-25
2023/09/09 07:33:17;;;;;;;;;;;25.10;52.80;;;;;;3054479;19;4612;-25
2023/09/09 07:34:19;;;;;;;;;;;25.10;52.80;;;;;;3054190;19;4626;-26
2023/09/09 07:35:20;;;;;;;;;;;25.10;52.90;;;;;;3053126;19;4627;-25